createdAt,value
2023-04-02T00:00:06.137Z,11.17
2023-04-02T00:01:06.113Z,11.29
2023-04-02T00:02:06.140Z,11.27
2023-04-02T00:03:06.196Z,11.27
2023-04-02T00:04:06.140Z,11.23
2023-04-02T00:05:06.079Z,11.26
2023-04-02T00:06:06.063Z,11.26
2023-04-02T00:07:06.062Z,11.22
2023-04-02T00:08:06.825Z,11.22
2023-04-02T00:09:06.038Z,11.25
2023-04-02T00:10:06.023Z,11.22
2023-04-02T00:11:06.013Z,11.22
2023-04-02T00:12:06.014Z,11.22
2023-04-02T00:13:05.997Z,11.18
2023-04-02T00:14:05.993Z,11.26
2023-04-02T00:15:05.977Z,11.19
2023-04-02T00:16:05.979Z,11.19
2023-04-02T00:17:05.975Z,11.11
2023-04-02T00:18:05.991Z,11.12
2023-04-02T00:19:05.941Z,11.12
2023-04-02T00:20:05.934Z,11.18
2023-04-02T00:21:05.919Z,11.15
2023-04-02T00:22:05.912Z,11.12
2023-04-02T00:23:05.900Z,11.12
2023-04-02T00:24:05.915Z,11.08
2023-04-02T00:25:05.879Z,11.12
2023-04-02T00:26:05.870Z,11.11
2023-04-02T00:27:05.863Z,11.07
2023-04-02T00:28:06.829Z,11.12
2023-04-02T00:29:05.844Z,11.18
2023-04-02T00:30:05.829Z,11.02
2023-04-02T00:31:05.822Z,11.07
2023-04-02T00:32:05.884Z,11.12
2023-04-02T00:33:06.350Z,11.10
2023-04-02T00:34:05.817Z,11.05
2023-04-02T00:35:05.781Z,11.08
2023-04-02T00:36:05.833Z,11.11
2023-04-02T00:37:05.793Z,11.11
2023-04-02T00:38:05.796Z,11.11
2023-04-02T00:39:05.781Z,11.11
2023-04-02T00:40:05.734Z,11.02
2023-04-02T00:41:05.733Z,11.02
2023-04-02T00:42:05.810Z,11.00
2023-04-02T00:43:05.710Z,11.02
2023-04-02T00:44:05.703Z,11.02
2023-04-02T00:45:05.694Z,11.08
2023-04-02T00:46:05.696Z,11.02
2023-04-02T00:47:05.735Z,11.00
2023-04-02T00:48:05.747Z,10.94
2023-04-02T00:49:05.677Z,11.02
2023-04-02T00:50:05.686Z,11.04
2023-04-02T00:51:05.663Z,11.00
2023-04-02T00:52:05.673Z,10.96
2023-04-02T00:53:05.645Z,10.96
2023-04-02T00:54:05.662Z,10.93
2023-04-02T00:55:05.597Z,10.97
2023-04-02T00:56:05.579Z,10.96
2023-04-02T00:57:05.626Z,11.00
2023-04-02T00:58:05.562Z,10.94
2023-04-02T00:59:05.583Z,10.97
2023-04-02T01:00:05.541Z,10.97
2023-04-02T01:01:05.552Z,10.96
2023-04-02T01:02:05.524Z,10.94
2023-04-02T01:03:06.432Z,10.92
2023-04-02T01:04:05.569Z,10.93
2023-04-02T01:05:05.484Z,10.92
2023-04-02T01:06:05.516Z,10.86
2023-04-02T01:07:05.473Z,10.92
2023-04-02T01:08:05.461Z,10.93
2023-04-02T01:09:05.453Z,11.02
2023-04-02T01:10:05.545Z,10.93
2023-04-02T01:11:05.430Z,10.99
2023-04-02T01:12:05.455Z,10.99
2023-04-02T01:13:05.445Z,10.89
2023-04-02T01:14:05.443Z,10.93
2023-04-02T01:15:05.392Z,10.93
2023-04-02T01:16:05.402Z,10.94
2023-04-02T01:17:05.375Z,10.96
2023-04-02T01:18:05.420Z,10.92
2023-04-02T01:19:05.363Z,10.84
2023-04-02T01:20:05.361Z,10.84
2023-04-02T01:21:05.330Z,10.94
2023-04-02T01:22:05.322Z,10.93
2023-04-02T01:23:05.875Z,10.84
2023-04-02T01:24:05.311Z,10.81
2023-04-02T01:25:05.294Z,10.96
2023-04-02T01:26:05.283Z,10.90
2023-04-02T01:27:05.285Z,10.93
2023-04-02T01:28:05.262Z,10.94
2023-04-02T01:29:05.250Z,10.96
2023-04-02T01:30:05.245Z,10.96
2023-04-02T01:31:05.275Z,10.97
2023-04-02T01:32:05.234Z,10.93
2023-04-02T01:33:05.257Z,10.93
2023-04-02T01:34:05.204Z,10.89
2023-04-02T01:35:05.196Z,10.94
2023-04-02T01:36:05.210Z,10.94
2023-04-02T01:37:05.175Z,10.90
2023-04-02T01:38:05.159Z,10.90
2023-04-02T01:39:05.167Z,10.96
2023-04-02T01:40:05.152Z,10.92
2023-04-02T01:41:05.132Z,11.00
2023-04-02T01:42:05.212Z,10.90
2023-04-02T01:43:05.113Z,10.92
2023-04-02T01:44:05.114Z,10.93
2023-04-02T01:45:05.127Z,10.94
2023-04-02T01:46:05.105Z,10.94
2023-04-02T01:47:05.075Z,10.96
2023-04-02T01:48:05.132Z,10.97
2023-04-02T01:49:05.062Z,10.94
2023-04-02T01:50:05.049Z,10.96
2023-04-02T01:51:05.038Z,10.94
2023-04-02T01:52:05.031Z,10.99
2023-04-02T01:53:05.026Z,10.94
2023-04-02T01:54:05.007Z,10.96
2023-04-02T01:55:04.995Z,11.00
2023-04-02T01:56:04.986Z,10.87
2023-04-02T01:57:05.012Z,10.92
2023-04-02T01:58:04.990Z,10.90
2023-04-02T01:59:04.957Z,10.97
2023-04-02T02:00:04.952Z,10.93
2023-04-02T02:01:04.969Z,10.97
2023-04-02T02:02:04.962Z,10.90
2023-04-02T02:03:04.963Z,10.93
2023-04-02T02:04:04.906Z,10.90
2023-04-02T02:05:04.893Z,10.94
2023-04-02T02:06:04.890Z,10.94
2023-04-02T02:07:04.877Z,10.99
2023-04-02T02:08:04.862Z,10.93
2023-04-02T02:09:04.878Z,10.93
2023-04-02T02:10:04.868Z,10.87
2023-04-02T02:11:04.856Z,10.99
2023-04-02T02:12:04.836Z,10.86
2023-04-02T02:13:07.070Z,10.89
2023-04-02T02:14:04.868Z,10.89
2023-04-02T02:15:04.819Z,10.87
2023-04-02T02:16:04.814Z,10.90
2023-04-02T02:17:04.784Z,10.93
2023-04-02T02:18:04.769Z,10.96
2023-04-02T02:19:04.773Z,10.87
2023-04-02T02:20:04.750Z,10.94
2023-04-02T02:21:04.739Z,10.90
2023-04-02T02:22:04.737Z,10.93
2023-04-02T02:23:04.720Z,10.92
2023-04-02T02:24:04.715Z,10.89
2023-04-02T02:25:04.697Z,10.84
2023-04-02T02:26:04.693Z,10.84
2023-04-02T02:27:04.681Z,10.90
2023-04-02T02:28:04.672Z,10.89
2023-04-02T02:29:04.670Z,10.84
2023-04-02T02:30:04.713Z,10.78
2023-04-02T02:31:04.645Z,10.79
2023-04-02T02:32:04.690Z,10.76
2023-04-02T02:33:04.723Z,10.76
2023-04-02T02:34:04.624Z,10.87
2023-04-02T02:35:04.605Z,10.79
2023-04-02T02:36:04.636Z,10.81
2023-04-02T02:37:04.582Z,10.75
2023-04-02T02:38:04.571Z,10.74
2023-04-02T02:39:04.562Z,10.84
2023-04-02T02:40:04.557Z,10.81
2023-04-02T02:41:04.554Z,10.79
2023-04-02T02:42:04.541Z,10.79
2023-04-02T02:43:04.527Z,10.81
2023-04-02T02:44:04.527Z,10.78
2023-04-02T02:45:04.500Z,10.74
2023-04-02T02:46:04.532Z,10.78
2023-04-02T02:47:04.483Z,10.79
2023-04-02T02:48:04.526Z,10.75
2023-04-02T02:49:04.495Z,10.69
2023-04-02T02:50:04.457Z,10.74
2023-04-02T02:51:04.440Z,10.74
2023-04-02T02:52:04.439Z,10.75
2023-04-02T02:53:05.382Z,10.75
2023-04-02T02:54:04.421Z,10.74
2023-04-02T02:55:04.408Z,10.76
2023-04-02T02:56:04.392Z,10.69
2023-04-02T02:57:04.437Z,10.75
2023-04-02T02:58:04.378Z,10.71
2023-04-02T02:59:04.361Z,10.71
2023-04-02T03:00:04.357Z,10.74
2023-04-02T03:01:04.399Z,10.72
2023-04-02T03:02:04.333Z,10.71
2023-04-02T03:03:04.427Z,10.64
2023-04-02T03:04:04.399Z,10.68
2023-04-02T03:05:04.300Z,10.63
2023-04-02T03:06:04.295Z,10.64
2023-04-02T03:07:04.282Z,10.60
2023-04-02T03:08:04.285Z,10.56
2023-04-02T03:09:04.263Z,10.64
2023-04-02T03:10:04.255Z,10.61
2023-04-02T03:11:04.248Z,10.63
2023-04-02T03:12:04.232Z,10.63
2023-04-02T03:13:04.877Z,10.61
2023-04-02T03:14:04.213Z,10.61
2023-04-02T03:15:04.211Z,10.60
2023-04-02T03:16:04.207Z,10.63
2023-04-02T03:17:04.184Z,10.57
2023-04-02T03:18:04.953Z,10.61
2023-04-02T03:19:04.163Z,10.61
2023-04-02T03:20:04.156Z,10.57
2023-04-02T03:21:04.144Z,10.61
2023-04-02T03:22:04.137Z,10.64
2023-04-02T03:23:04.893Z,10.61
2023-04-02T03:24:04.119Z,10.67
2023-04-02T03:25:04.103Z,10.63
2023-04-02T03:26:04.093Z,10.61
2023-04-02T03:27:04.084Z,10.61
2023-04-02T03:28:04.077Z,10.63
2023-04-02T03:29:04.063Z,10.57
2023-04-02T03:30:04.095Z,10.63
2023-04-02T03:31:04.128Z,10.60
2023-04-02T03:32:04.036Z,10.63
2023-04-02T03:33:04.073Z,10.59
2023-04-02T03:34:04.023Z,10.64
2023-04-02T03:35:04.002Z,10.64
2023-04-02T03:36:04.006Z,10.60
2023-04-02T03:37:03.988Z,10.67
2023-04-02T03:38:03.980Z,10.64
2023-04-02T03:39:03.969Z,10.63
2023-04-02T03:40:03.958Z,10.64
2023-04-02T03:41:03.950Z,10.53
2023-04-02T03:42:03.939Z,10.63
2023-04-02T03:43:03.931Z,10.54
2023-04-02T03:44:03.916Z,10.59
2023-04-02T03:45:03.901Z,10.60
2023-04-02T03:46:03.932Z,10.67
2023-04-02T03:47:03.885Z,10.56
2023-04-02T03:48:03.932Z,10.67
2023-04-02T03:49:03.865Z,10.61
2023-04-02T03:50:03.853Z,10.67
2023-04-02T03:51:03.842Z,10.60
2023-04-02T03:52:03.840Z,10.64
2023-04-02T03:53:03.828Z,10.59
2023-04-02T03:54:03.832Z,10.68
2023-04-02T03:55:03.803Z,10.60
2023-04-02T03:56:03.813Z,10.57
2023-04-02T03:57:03.902Z,10.59
2023-04-02T03:58:03.777Z,10.59
2023-04-02T03:59:03.767Z,10.60
2023-04-02T04:00:03.785Z,10.60
2023-04-02T04:01:03.747Z,10.60
2023-04-02T04:02:03.788Z,10.54
2023-04-02T04:03:03.763Z,10.59
2023-04-02T04:04:03.741Z,10.57
2023-04-02T04:05:03.702Z,10.56
2023-04-02T04:06:03.695Z,10.60
2023-04-02T04:07:03.681Z,10.61
2023-04-02T04:08:03.675Z,10.60
2023-04-02T04:09:03.662Z,10.60
2023-04-02T04:10:03.655Z,10.56
2023-04-02T04:11:03.678Z,10.63
2023-04-02T04:12:03.639Z,10.57
2023-04-02T04:13:03.621Z,10.59
2023-04-02T04:14:03.617Z,10.60
2023-04-02T04:15:03.598Z,10.54
2023-04-02T04:16:03.590Z,10.59
2023-04-02T04:17:03.582Z,10.59
2023-04-02T04:18:03.624Z,10.56
2023-04-02T04:19:03.591Z,10.60
2023-04-02T04:20:03.550Z,10.60
2023-04-02T04:21:03.539Z,10.63
2023-04-02T04:22:03.537Z,10.59
2023-04-02T04:23:03.557Z,10.56
2023-04-02T04:24:03.520Z,10.48
2023-04-02T04:25:03.505Z,10.49
2023-04-02T04:26:03.493Z,10.54
2023-04-02T04:27:03.481Z,10.60
2023-04-02T04:28:03.470Z,10.59
2023-04-02T04:29:03.463Z,10.44
2023-04-02T04:30:03.465Z,10.53
2023-04-02T04:31:03.440Z,10.57
2023-04-02T04:32:03.461Z,10.54
2023-04-02T04:33:03.446Z,10.49
2023-04-02T04:34:03.408Z,10.53
2023-04-02T04:35:03.407Z,10.59
2023-04-02T04:36:03.721Z,10.46
2023-04-02T04:37:03.381Z,10.46
2023-04-02T04:38:03.933Z,10.56
2023-04-02T04:39:03.368Z,10.56
2023-04-02T04:40:03.351Z,10.54
2023-04-02T04:41:03.338Z,10.57
2023-04-02T04:42:03.335Z,10.53
2023-04-02T04:43:03.912Z,10.54
2023-04-02T04:44:03.313Z,10.53
2023-04-02T04:45:03.298Z,10.53
2023-04-02T04:46:03.323Z,10.51
2023-04-02T04:47:03.283Z,10.53
2023-04-02T04:48:03.938Z,10.56
2023-04-02T04:49:03.264Z,10.54
2023-04-02T04:50:03.256Z,10.48
2023-04-02T04:51:03.305Z,10.46
2023-04-02T04:52:03.250Z,10.57
2023-04-02T04:53:03.221Z,10.48
2023-04-02T04:54:03.217Z,10.44
2023-04-02T04:55:03.201Z,10.51
2023-04-02T04:56:18.172Z,10.57
2023-04-02T04:57:03.214Z,10.53
2023-04-02T04:58:03.175Z,10.54
2023-04-02T04:59:03.174Z,10.51
2023-04-02T05:00:03.157Z,10.53
2023-04-02T05:01:03.158Z,10.46
2023-04-02T05:02:03.128Z,10.56
2023-04-02T05:03:03.187Z,10.53
2023-04-02T05:04:03.113Z,10.51
2023-04-02T05:05:03.144Z,10.53
2023-04-02T05:06:03.095Z,10.49
2023-04-02T05:07:03.086Z,10.48
2023-04-02T05:08:03.917Z,10.53
2023-04-02T05:09:03.054Z,10.49
2023-04-02T05:10:03.044Z,10.49
2023-04-02T05:11:03.035Z,10.44
2023-04-02T05:12:03.035Z,10.49
2023-04-02T05:13:03.921Z,10.46
2023-04-02T05:14:03.007Z,10.51
2023-04-02T05:15:03.004Z,10.40
2023-04-02T05:16:03.003Z,10.56
2023-04-02T05:17:02.977Z,10.51
2023-04-02T05:18:03.957Z,10.54
2023-04-02T05:19:02.961Z,10.51
2023-04-02T05:20:02.959Z,10.53
2023-04-02T05:21:02.930Z,10.53
2023-04-02T05:22:02.928Z,10.56
2023-04-02T05:23:02.922Z,10.60
2023-04-02T05:24:02.911Z,10.57
2023-04-02T05:25:02.905Z,10.53
2023-04-02T05:26:02.889Z,10.54
2023-04-02T05:27:02.875Z,10.49
2023-04-02T05:28:02.866Z,10.46
2023-04-02T05:29:02.859Z,10.57
2023-04-02T05:30:02.854Z,10.56
2023-04-02T05:31:02.872Z,10.63
2023-04-02T05:32:02.836Z,10.57
2023-04-02T05:33:02.833Z,10.60
2023-04-02T05:34:02.808Z,10.59
2023-04-02T05:35:02.791Z,10.54
2023-04-02T05:36:02.807Z,10.60
2023-04-02T05:37:04.054Z,10.56
2023-04-02T05:38:02.789Z,10.64
2023-04-02T05:39:02.759Z,10.57
2023-04-02T05:40:02.746Z,10.61
2023-04-02T05:41:02.738Z,10.61
2023-04-02T05:42:02.730Z,10.64
2023-04-02T05:43:02.713Z,10.57
2023-04-02T05:44:02.705Z,10.63
2023-04-02T05:45:02.695Z,10.60
2023-04-02T05:46:02.691Z,10.61
2023-04-02T05:47:02.690Z,10.71
2023-04-02T05:48:02.725Z,10.59
2023-04-02T05:49:02.657Z,10.68
2023-04-02T05:50:02.651Z,10.68
2023-04-02T05:51:02.632Z,10.64
2023-04-02T05:52:02.634Z,10.69
2023-04-02T05:53:02.615Z,10.69
2023-04-02T05:54:02.607Z,10.63
2023-04-02T05:55:02.596Z,10.79
2023-04-02T05:56:02.585Z,10.79
2023-04-02T05:57:02.633Z,10.72
2023-04-02T05:58:25.447Z,10.72
2023-04-02T05:59:02.556Z,10.79
2023-04-02T06:00:02.542Z,10.78
2023-04-02T06:01:02.534Z,10.79
2023-04-02T06:02:02.537Z,10.78
2023-04-02T06:03:02.608Z,10.74
2023-04-02T06:04:02.578Z,10.79
2023-04-02T06:05:02.495Z,10.89
2023-04-02T06:06:02.494Z,10.78
2023-04-02T06:07:02.481Z,10.89
2023-04-02T06:08:02.497Z,10.90
2023-04-02T06:09:02.452Z,10.89
2023-04-02T06:10:02.456Z,10.93
2023-04-02T06:11:02.449Z,11.02
2023-04-02T06:12:02.438Z,10.99
2023-04-02T06:13:02.415Z,10.96
2023-04-02T06:14:02.407Z,10.96
2023-04-02T06:15:02.394Z,10.99
2023-04-02T06:16:02.386Z,10.99
2023-04-02T06:17:02.406Z,11.02
2023-04-02T06:18:02.386Z,11.02
2023-04-02T06:19:02.355Z,11.00
2023-04-02T06:20:02.346Z,11.05
2023-04-02T06:21:02.336Z,11.04
2023-04-02T06:22:02.328Z,11.00
2023-04-02T06:23:02.319Z,10.99
2023-04-02T06:24:02.314Z,11.11
2023-04-02T06:25:02.293Z,11.00
2023-04-02T06:26:02.284Z,11.04
2023-04-02T06:27:02.277Z,11.11
2023-04-02T06:28:02.273Z,11.14
2023-04-02T06:29:02.265Z,11.10
2023-04-02T06:30:02.264Z,11.19
2023-04-02T06:31:02.251Z,11.12
2023-04-02T06:32:02.229Z,11.08
2023-04-02T06:33:02.244Z,11.18
2023-04-02T06:34:02.212Z,11.25
2023-04-02T06:35:02.204Z,11.25
2023-04-02T06:36:02.212Z,11.27
2023-04-02T06:37:02.182Z,11.29
2023-04-02T06:38:02.176Z,11.36
2023-04-02T06:39:02.164Z,11.35
2023-04-02T06:40:02.186Z,11.33
2023-04-02T06:41:02.146Z,11.43
2023-04-02T06:42:02.138Z,11.41
2023-04-02T06:43:02.133Z,11.43
2023-04-02T06:44:02.118Z,11.40
2023-04-02T06:45:02.148Z,11.37
2023-04-02T06:46:02.115Z,11.41
2023-04-02T06:47:02.087Z,11.41
2023-04-02T06:48:02.112Z,11.37
2023-04-02T06:49:02.075Z,11.40
2023-04-02T06:50:02.083Z,11.32
2023-04-02T06:51:02.065Z,11.35
2023-04-02T06:52:02.040Z,11.44
2023-04-02T06:53:02.029Z,11.41
2023-04-02T06:54:02.020Z,11.44
2023-04-02T06:55:02.052Z,11.51
2023-04-02T06:56:02.005Z,11.52
2023-04-02T06:57:02.030Z,11.48
2023-04-02T06:58:01.994Z,11.52
2023-04-02T06:59:01.973Z,11.62
2023-04-02T07:00:01.959Z,11.51
2023-04-02T07:01:01.951Z,11.48
2023-04-02T07:02:01.945Z,11.52
2023-04-02T07:03:01.957Z,11.54
2023-04-02T07:04:01.931Z,11.55
2023-04-02T07:05:01.968Z,11.66
2023-04-02T07:06:01.897Z,11.59
2023-04-02T07:07:01.898Z,11.57
2023-04-02T07:08:01.918Z,11.62
2023-04-02T07:09:01.877Z,11.62
2023-04-02T07:10:01.862Z,11.77
2023-04-02T07:11:01.854Z,11.70
2023-04-02T07:12:01.845Z,11.70
2023-04-02T07:13:01.854Z,11.77
2023-04-02T07:14:01.829Z,11.69
2023-04-02T07:15:01.816Z,11.77
2023-04-02T07:16:01.846Z,11.81
2023-04-02T07:17:01.796Z,11.86
2023-04-02T07:18:01.840Z,11.78
2023-04-02T07:19:01.780Z,11.72
2023-04-02T07:20:01.768Z,11.73
2023-04-02T07:21:01.753Z,11.75
2023-04-02T07:22:01.746Z,11.81
2023-04-02T07:23:01.738Z,11.77
2023-04-02T07:24:01.727Z,11.80
2023-04-02T07:25:01.721Z,11.86
2023-04-02T07:26:01.709Z,11.75
2023-04-02T07:27:01.714Z,11.73
2023-04-02T07:28:01.693Z,11.73
2023-04-02T07:29:01.694Z,11.57
2023-04-02T07:30:01.673Z,11.40
2023-04-02T07:31:01.699Z,11.05
2023-04-02T07:32:01.657Z,10.96
2023-04-02T07:33:01.654Z,10.68
2023-04-02T07:34:01.632Z,10.60
2023-04-02T07:35:01.626Z,10.46
2023-04-02T07:36:01.657Z,10.22
2023-04-02T07:37:01.605Z,10.35
2023-04-02T07:38:01.596Z,10.12
2023-04-02T07:39:01.647Z,9.92
2023-04-02T07:40:01.606Z,9.91
2023-04-02T07:41:01.572Z,9.83
2023-04-02T07:42:01.554Z,9.86
2023-04-02T07:43:01.548Z,9.79
2023-04-02T07:44:01.544Z,9.74
2023-04-02T07:45:02.821Z,9.91
2023-04-02T07:46:01.520Z,9.82
2023-04-02T07:47:01.752Z,9.86
2023-04-02T07:48:01.576Z,9.72
2023-04-02T07:49:01.487Z,9.68
2023-04-02T07:50:01.494Z,9.61
2023-04-02T07:51:01.473Z,9.61
2023-04-02T07:52:01.466Z,9.64
2023-04-02T07:53:01.473Z,9.61
2023-04-02T07:54:01.437Z,9.54
2023-04-02T07:55:01.428Z,9.43
2023-04-02T07:56:01.445Z,9.44
2023-04-02T07:57:01.439Z,9.51
2023-04-02T07:58:01.396Z,9.48
2023-04-02T07:59:01.399Z,9.51
2023-04-02T08:00:01.382Z,9.32
2023-04-02T08:01:01.398Z,9.40
2023-04-02T08:02:01.378Z,9.44
2023-04-02T08:03:01.442Z,9.40
2023-04-02T08:04:01.411Z,9.55
2023-04-02T08:05:01.340Z,9.46
2023-04-02T08:06:01.325Z,9.36
2023-04-02T08:07:01.312Z,9.43
2023-04-02T08:08:01.292Z,9.44
2023-04-02T08:09:01.298Z,9.43
2023-04-02T08:10:01.418Z,9.50
2023-04-02T08:11:01.277Z,9.44
2023-04-02T08:12:01.270Z,9.39
2023-04-02T08:13:01.247Z,9.39
2023-04-02T08:14:01.238Z,9.39
2023-04-02T08:15:01.275Z,9.39
2023-04-02T08:16:01.221Z,9.37
2023-04-02T08:17:01.235Z,9.37
2023-04-02T08:18:01.227Z,9.32
2023-04-02T08:19:01.183Z,9.37
2023-04-02T08:20:01.192Z,9.41
2023-04-02T08:21:01.159Z,9.44
2023-04-02T08:22:01.150Z,9.34
2023-04-02T08:23:01.983Z,9.43
2023-04-02T08:24:01.130Z,9.29
2023-04-02T08:25:01.123Z,9.21
2023-04-02T08:26:01.114Z,9.21
2023-04-02T08:27:01.098Z,9.23
2023-04-02T08:28:01.087Z,9.28
2023-04-02T08:29:01.087Z,9.32
2023-04-02T08:30:01.070Z,9.34
2023-04-02T08:31:01.106Z,9.19
2023-04-02T08:32:01.048Z,9.31
2023-04-02T08:33:01.093Z,9.29
2023-04-02T08:34:01.028Z,9.29
2023-04-02T08:35:01.014Z,9.22
2023-04-02T08:36:01.025Z,9.19
2023-04-02T08:37:01.002Z,9.08
2023-04-02T08:38:01.061Z,9.08
2023-04-02T08:39:00.984Z,9.08
2023-04-02T08:40:00.959Z,9.02
2023-04-02T08:41:00.958Z,9.04
2023-04-02T08:42:00.940Z,9.00
2023-04-02T08:43:00.927Z,9.10
2023-04-02T08:44:00.924Z,9.14
2023-04-02T08:45:05.799Z,9.13
2023-04-02T08:46:00.900Z,9.13
2023-04-02T08:47:00.887Z,9.16
2023-04-02T08:48:00.943Z,9.16
2023-04-02T08:49:00.865Z,9.10
2023-04-02T08:50:00.866Z,9.16
2023-04-02T08:51:00.863Z,9.19
2023-04-02T08:52:00.852Z,9.14
2023-04-02T08:53:00.818Z,9.11
2023-04-02T08:54:00.808Z,9.29
2023-04-02T08:55:00.809Z,9.23
2023-04-02T08:56:00.791Z,9.31
2023-04-02T08:57:00.778Z,9.29
2023-04-02T08:58:00.763Z,9.21
2023-04-02T08:59:00.766Z,9.36
2023-04-02T09:00:00.749Z,9.34
2023-04-02T09:01:00.741Z,9.36
2023-04-02T09:02:00.755Z,9.32
2023-04-02T09:03:00.747Z,9.34
2023-04-02T09:04:00.709Z,9.23
2023-04-02T09:05:00.734Z,9.36
2023-04-02T09:06:00.691Z,9.37
2023-04-02T09:07:00.676Z,9.22
2023-04-02T09:08:00.667Z,9.22
2023-04-02T09:09:00.661Z,9.19
2023-04-02T09:10:00.647Z,9.43
2023-04-02T09:11:00.637Z,9.34
2023-04-02T09:12:00.655Z,9.32
2023-04-02T09:13:00.607Z,9.39
2023-04-02T09:14:00.605Z,9.46
2023-04-02T09:15:00.601Z,9.50
2023-04-02T09:16:00.623Z,9.55
2023-04-02T09:17:00.572Z,9.64
2023-04-02T09:18:00.644Z,9.48
2023-04-02T09:19:00.544Z,9.50
2023-04-02T09:20:00.531Z,9.61
2023-04-02T09:21:00.523Z,9.65
2023-04-02T09:22:00.525Z,9.48
2023-04-02T09:23:00.502Z,9.48
2023-04-02T09:24:00.491Z,9.51
2023-04-02T09:25:00.496Z,9.46
2023-04-02T09:26:04.550Z,9.41
2023-04-02T09:27:00.491Z,9.46
2023-04-02T09:28:00.452Z,9.51
2023-04-02T09:29:00.456Z,9.65
2023-04-02T09:30:00.426Z,9.59
2023-04-02T09:31:00.427Z,9.50
2023-04-02T09:32:00.467Z,9.54
2023-04-02T09:33:00.432Z,9.55
2023-04-02T09:34:00.399Z,9.55
2023-04-02T09:35:00.379Z,9.50
2023-04-02T09:36:00.407Z,9.55
2023-04-02T09:37:00.366Z,9.65
2023-04-02T09:38:00.349Z,9.58
2023-04-02T09:39:00.362Z,9.50
2023-04-02T09:40:00.330Z,9.61
2023-04-02T09:41:00.320Z,9.64
2023-04-02T09:42:05.449Z,9.62
2023-04-02T09:43:01.016Z,9.65
2023-04-02T09:44:00.287Z,9.73
2023-04-02T09:45:00.274Z,9.64
2023-04-02T09:46:00.266Z,9.56
2023-04-02T09:47:00.408Z,9.61
2023-04-02T09:48:00.269Z,9.54
2023-04-02T09:49:00.234Z,9.61
2023-04-02T09:50:00.219Z,9.68
2023-04-02T09:51:00.216Z,9.64
2023-04-02T09:52:00.204Z,9.66
2023-04-02T09:53:00.197Z,9.58
2023-04-02T09:54:00.185Z,9.72
2023-04-02T09:55:00.180Z,9.58
2023-04-02T09:56:00.156Z,9.68
2023-04-02T09:57:00.228Z,9.58
2023-04-02T09:58:01.927Z,9.62
2023-04-02T09:59:00.126Z,9.64
2023-04-02T10:00:00.146Z,9.79
2023-04-02T10:01:00.147Z,9.68
2023-04-02T10:02:00.128Z,9.61
2023-04-02T10:03:00.167Z,9.51
2023-04-02T10:04:00.205Z,9.50
2023-04-02T10:05:00.060Z,9.50
2023-04-02T10:06:00.049Z,9.69
2023-04-02T10:07:00.047Z,9.48
2023-04-02T10:08:00.033Z,9.47
2023-04-02T10:09:00.025Z,9.54
2023-04-02T10:10:00.005Z,9.50
2023-04-02T10:10:59.999Z,9.55
2023-04-02T10:12:00.010Z,9.55
2023-04-02T10:12:59.979Z,9.48
2023-04-02T10:13:59.977Z,9.56
2023-04-02T10:14:59.969Z,9.59
2023-04-02T10:15:59.969Z,9.61
2023-04-02T10:16:59.994Z,9.59
2023-04-02T10:17:59.936Z,9.68
2023-04-02T10:18:59.916Z,9.68
2023-04-02T10:19:59.898Z,9.69
2023-04-02T10:20:59.887Z,9.73
2023-04-02T10:21:59.886Z,9.73
2023-04-02T10:22:59.873Z,9.84
2023-04-02T10:23:59.860Z,9.72
2023-04-02T10:24:59.846Z,9.64
2023-04-02T10:25:59.834Z,9.72
2023-04-02T10:26:59.831Z,9.72
2023-04-02T10:27:59.820Z,9.68
2023-04-02T10:28:59.811Z,9.69
2023-04-02T10:29:59.815Z,9.59
2023-04-02T10:30:59.834Z,9.73
2023-04-02T10:31:59.793Z,9.77
2023-04-02T10:32:59.815Z,9.73
2023-04-02T10:33:59.760Z,9.83
2023-04-02T10:34:59.743Z,9.69
2023-04-02T10:35:59.852Z,9.74
2023-04-02T10:36:59.737Z,9.69
2023-04-02T10:37:59.718Z,9.73
2023-04-02T10:38:59.723Z,9.74
2023-04-02T10:39:59.695Z,9.73
2023-04-02T10:40:59.699Z,9.64
2023-04-02T10:41:59.680Z,9.58
2023-04-02T10:42:59.667Z,9.66
2023-04-02T10:44:09.172Z,9.69
2023-04-02T10:44:59.644Z,9.66
2023-04-02T10:45:59.679Z,9.62
2023-04-02T10:46:59.629Z,9.65
2023-04-02T10:47:59.644Z,9.61
2023-04-02T10:48:59.612Z,9.64
2023-04-02T10:49:59.596Z,9.66
2023-04-02T10:50:59.582Z,9.62
2023-04-02T10:51:59.592Z,9.61
2023-04-02T10:52:59.560Z,9.64
2023-04-02T10:53:59.555Z,9.66
2023-04-02T10:54:59.544Z,9.76
2023-04-02T10:55:59.528Z,9.74
2023-04-02T10:56:59.588Z,9.66
2023-04-02T10:57:59.511Z,9.73
2023-04-02T10:58:59.501Z,9.64
2023-04-02T10:59:59.521Z,9.73
2023-04-02T11:00:59.480Z,9.86
2023-04-02T11:01:59.480Z,9.87
2023-04-02T11:02:59.560Z,9.86
2023-04-02T11:03:59.473Z,9.98
2023-04-02T11:05:01.168Z,10.04
2023-04-02T11:05:59.426Z,10.05
2023-04-02T11:07:11.236Z,10.12
2023-04-02T11:07:59.411Z,10.07
2023-04-02T11:08:59.411Z,10.04
2023-04-02T11:09:59.382Z,10.02
2023-04-02T11:10:59.380Z,10.04
2023-04-02T11:11:59.366Z,9.94
2023-04-02T11:12:59.378Z,10.13
2023-04-02T11:13:59.357Z,10.15
2023-04-02T11:14:59.332Z,10.17
2023-04-02T11:15:59.381Z,10.22
2023-04-02T11:16:59.312Z,10.10
2023-04-02T11:17:59.369Z,10.10
2023-04-02T11:18:59.300Z,10.22
2023-04-02T11:19:59.287Z,10.26
2023-04-02T11:20:59.270Z,10.28
2023-04-02T11:22:00.773Z,10.22
2023-04-02T11:22:59.252Z,10.12
2023-04-02T11:23:59.250Z,10.09
2023-04-02T11:24:59.238Z,10.20
2023-04-02T11:25:59.224Z,10.09
2023-04-02T11:26:59.210Z,10.10
2023-04-02T11:27:59.200Z,10.07
2023-04-02T11:29:59.263Z,10.10
2023-04-02T11:30:59.277Z,10.30
2023-04-02T11:31:59.248Z,10.28
2023-04-02T11:32:59.283Z,10.33
2023-04-02T11:33:59.211Z,10.28
2023-04-02T11:35:06.407Z,10.34
2023-04-02T11:36:20.231Z,10.25
2023-04-02T11:36:59.178Z,10.20
2023-04-02T11:37:59.176Z,10.25
2023-04-02T11:39:07.374Z,10.22
2023-04-02T11:39:59.164Z,10.22
2023-04-02T11:40:59.135Z,10.31
2023-04-02T11:42:20.131Z,10.26
2023-04-02T11:42:59.110Z,10.26
2023-04-02T11:43:59.128Z,10.20
2023-04-02T11:44:59.091Z,10.07
2023-04-02T11:45:59.220Z,9.94
2023-04-02T11:46:59.109Z,9.98
2023-04-02T11:48:20.089Z,9.79
2023-04-02T11:48:59.059Z,9.83
2023-04-02T11:49:59.071Z,9.72
2023-04-02T11:50:59.038Z,9.80
2023-04-02T11:52:09.341Z,9.74
2023-04-02T11:52:59.019Z,9.72
2023-04-02T11:54:20.038Z,9.69
2023-04-02T11:54:58.984Z,9.68
2023-04-02T11:55:58.995Z,9.61
2023-04-02T11:56:59.015Z,9.64
2023-04-02T11:57:58.968Z,9.66
2023-04-02T11:58:58.954Z,9.77
2023-04-02T12:00:19.963Z,9.82
2023-04-02T12:00:58.957Z,9.86
2023-04-02T12:01:58.967Z,9.91
2023-04-02T12:02:58.960Z,9.94
2023-04-02T12:03:58.915Z,9.98
2023-04-02T12:04:58.918Z,9.69
2023-04-02T12:06:19.905Z,9.76
2023-04-02T12:06:58.881Z,9.80
2023-04-02T12:07:58.875Z,9.92
2023-04-02T12:08:58.861Z,9.95
2023-04-02T12:09:58.854Z,9.89
2023-04-02T12:10:58.829Z,9.86
2023-04-02T12:12:19.840Z,9.83
2023-04-02T12:12:58.823Z,9.83
2023-04-02T12:13:58.814Z,9.72
2023-04-02T12:14:58.850Z,9.64
2023-04-02T12:15:58.790Z,9.55
2023-04-02T12:16:58.834Z,9.64
2023-04-02T12:18:19.787Z,9.74
2023-04-02T12:18:58.748Z,9.69
2023-04-02T12:19:58.748Z,9.79
2023-04-02T12:20:58.730Z,9.95
2023-04-02T12:21:58.727Z,10.02
2023-04-02T12:22:58.713Z,10.10
2023-04-02T12:24:19.724Z,10.04
2023-04-02T12:24:58.688Z,10.12
2023-04-02T12:25:58.690Z,10.09
2023-04-02T12:26:58.677Z,10.12
2023-04-02T12:27:58.663Z,10.12
2023-04-02T12:28:58.658Z,10.12
2023-04-02T12:30:19.651Z,10.13
2023-04-02T12:30:58.664Z,10.12
2023-04-02T12:31:58.638Z,10.25
2023-04-02T12:32:58.613Z,10.10
2023-04-02T12:33:58.609Z,10.07
2023-04-02T12:34:58.585Z,9.99
2023-04-02T12:36:19.690Z,10.09
2023-04-02T12:36:58.592Z,10.07
2023-04-02T12:37:58.599Z,9.91
2023-04-02T12:38:58.542Z,10.01
2023-04-02T12:39:58.552Z,9.86
2023-04-02T12:40:58.545Z,9.83
2023-04-02T12:42:19.543Z,9.82
2023-04-02T12:42:58.504Z,9.82
2023-04-02T12:43:58.507Z,9.74
2023-04-02T12:44:58.484Z,9.68
2023-04-02T12:45:58.626Z,9.76
2023-04-02T12:46:58.466Z,9.73
2023-04-02T12:48:19.495Z,9.73
2023-04-02T12:48:58.442Z,9.80
2023-04-02T12:49:58.435Z,9.74
2023-04-02T12:50:58.428Z,9.83
2023-04-02T12:51:58.423Z,9.83
2023-04-02T12:52:58.416Z,9.89
2023-04-02T12:54:19.407Z,9.83
2023-04-02T12:54:58.390Z,9.83
2023-04-02T12:55:58.385Z,9.73
2023-04-02T12:56:58.398Z,9.73
2023-04-02T12:57:58.371Z,9.66
2023-04-02T12:58:58.369Z,9.89
2023-04-02T13:00:19.336Z,9.76
2023-04-02T13:00:58.361Z,9.80
2023-04-02T13:01:58.343Z,9.74